Latest Weather Observations for Cape Moreton

IDQ60901

Issued at 12:31 pm EST Monday 29 May 2023 (issued every 10 minutes, with the page automatically refreshed every 10 minutes)

About weather observations | Map of Brisbane area stations | Latest observations for Brisbane area | Other Formats
Station Details ID: 040043 Name: CAPE MORETON LIGHTHOUSE Lat: -27.03 Lon: 153.47 Height: 99.9 m
Data from the previous 72 hours. | See also: Recent months at Cape Moreton
Date/Time
EST
Temp
°C
App
Temp
°C
Dew
Point
°C
Rel
Hum
%
Delta-T
°C
Wind Press
QNH
hPa
Press
MSL
hPa
Rain since
9am
mm
Dir  Spd
km/h
Gust
km/h
Spd
kts
Gust
kts
29/12:30pm 18.6 15.1 5.5 42 6.4 SW 13 20 7 11 1019.3 1019.0 0.0
29/12:00pm 17.8 13.3 4.4 41 6.4 WSW 17 24 9 13 1019.5 1019.2 0.0
29/11:30am 17.6 12.8 5.5 45 5.9 WSW 20 28 11 15 1019.9 1019.6 0.0
29/11:00am 16.8 11.5 4.8 45 5.7 SW 22 30 12 16 1020.1 1019.8 0.0
29/10:30am 17.0 12.4 5.6 47 5.5 SW 19 28 10 15 1020.3 1020.0 0.0
29/10:00am 15.9 10.7 5.5 50 5.0 SW 22 32 12 17 1020.2 1019.9 0.0
29/09:30am 15.5 10.2 4.8 49 5.1 SW 22 33 12 18 1020.1 1019.8 0.0
29/09:00am 14.9 10.0 5.1 52 4.6 WSW 20 32 11 17 1020.1 1019.8 0.0
29/08:30am 14.1 9.2 4.9 54 4.3 WSW 20 30 11 16 1019.9 1019.6 0.0
29/08:00am 13.6 9.0 5.5 58 3.8 WSW 19 30 10 16 1019.9 1019.6 0.0
29/07:30am 12.9 8.2 5.3 60 3.6 WSW 19 26 10 14 1019.8 1019.5 0.0
29/07:00am 12.2 7.4 4.7 60 3.4 WSW 19 26 10 14 1019.5 1019.2 0.0
29/06:30am 12.1 7.0 4.3 59 3.5 WSW 20 24 11 13 1019.2 1018.9 0.0
29/06:00am 12.2 7.1 3.9 57 3.7 WSW 20 26 11 14 1018.8 1018.5 0.0
29/05:30am 12.7 7.2 4.2 56 3.9 WSW 22 30 12 16 1018.5 1018.2 0.0
29/05:00am 12.5 7.7 4.5 58 3.7 SW 19 28 10 15 1018.3 1018.0 0.0
29/04:30am 12.7 7.9 4.4 57 3.8 SW 19 22 10 12 1018.0 1017.7 0.0
29/04:00am 12.6 8.8 4.1 56 3.9 SW 13 22 7 12 1017.9 1017.6 0.0
29/03:30am 12.9 7.8 4.3 56 3.9 WSW 20 30 11 16 1017.7 1017.4 0.0
29/03:00am 13.2 8.1 4.1 54 4.1 WSW 20 30 11 16 1017.6 1017.3 0.0
29/02:30am 13.2 8.4 4.9 57 3.9 WSW 19 24 10 13 1017.8 1017.5 0.0
29/02:00am 13.2 7.9 4.9 57 3.8 WSW 22 26 12 14 1017.7 1017.4 0.0
29/01:30am 13.6 8.2 4.7 55 4.1 WSW 22 28 12 15 1017.4 1017.1 0.0
29/01:00am 13.6 8.8 4.7 55 4.1 WSW 19 24 10 13 1017.5 1017.2 0.0
29/12:30am 14.3 9.2 4.3 51 4.6 WSW 20 28 11 15 1017.3 1017.0 0.0
29/12:00am 15.1 9.8 4.8 50 4.8 W 22 30 12 16 1017.2 1016.9 0.0
 
Date/Time
EST
Temp
°C
App
Temp
°C
Dew
Point
°C
Rel
Hum
%
Delta-T
°C
Wind Press
QNH
hPa
Press
MSL
hPa
Rain since
9am
mm
Dir  Spd
km/h
Gust
km/h
Spd
kts
Gust
kts
28/11:30pm 15.4 9.7 5.0 50 4.9 W 24 30 13 16 1017.3 1017.0 0.0
28/11:00pm 15.7 11.0 5.3 50 5.0 W 19 24 10 13 1017.3 1017.0 0.0
28/10:30pm 16.1 11.3 5.7 50 5.0 W 20 24 11 13 1017.4 1017.1 0.0
28/10:00pm 16.3 11.6 6.2 51 4.9 W 20 24 11 13 1017.5 1017.2 0.0
28/09:30pm 16.2 13.0 12.0 76 2.3 W 20 24 11 13 1017.6 1017.3 0.0
28/09:00pm 15.7 12.6 12.3 80 1.9 W 20 24 11 13 1017.6 1017.3 0.0
28/08:30pm 16.6 13.6 10.7 68 3.2 W 17 24 9 13 1017.4 1017.1 0.0
28/08:00pm 18.2 15.7 11.0 63 3.9 NNW 15 19 8 10 1017.0 1016.7 0.0
28/07:30pm 18.5 15.9 10.6 60 4.3 NNW 15 19 8 10 1016.7 1016.4 0.0
28/07:00pm 18.4 15.6 10.0 58 4.5 N 15 19 8 10 1016.3 1016.0 0.0
28/06:30pm 18.3 15.6 9.1 55 4.8 N 13 17 7 9 1015.9 1015.6 0.0
28/06:00pm 18.2 15.6 9.3 56 4.7 N 13 17 7 9 1015.4 1015.1 0.0
28/05:30pm 18.0 15.7 9.1 56 4.7 N 11 15 6 8 1015.2 1014.9 0.0
28/05:00pm 18.3 16.2 8.3 52 5.2 N 9 11 5 6 1015.0 1014.7 0.0
28/04:30pm 18.9 17.0 9.1 53 5.2 NNW 9 11 5 6 1015.0 1014.7 0.0
28/04:00pm 19.5 17.7 9.4 52 5.4 NNW 9 13 5 7 1014.8 1014.5 0.0
28/03:30pm 19.5 17.6 9.1 51 5.5 NNW 9 13 5 7 1014.7 1014.4 0.0
28/03:00pm 20.0 18.0 8.7 48 5.9 NW 9 11 5 6 1014.7 1014.4 0.0
28/02:30pm 20.3 17.6 8.9 48 6.0 WNW 13 19 7 10 1014.6 1014.3 0.0
28/02:00pm 20.7 18.7 8.7 46 6.3 W 9 17 5 9 1014.7 1014.4 0.0
28/01:30pm 20.4 17.8 7.7 44 6.6 W 11 17 6 9 1014.8 1014.5 0.0
28/01:00pm 20.2 16.8 7.6 44 6.5 W 15 20 8 11 1015.1 1014.8 0.0
28/12:30pm 20.4 17.6 8.4 46 6.3 WSW 13 17 7 9 1015.4 1015.1 0.0
28/12:00pm 19.8 16.2 6.9 43 6.5 WSW 15 20 8 11 1015.7 1015.4 0.0
28/11:30am 19.7 16.0 6.1 41 6.8 W 15 24 8 13 1016.2 1015.9 0.0
28/11:00am 19.1 16.0 7.2 46 6.0 WSW 13 20 7 11 1016.5 1016.2 0.0
28/10:30am 19.1 16.4 9.0 52 5.3 WSW 13 19 7 10 1016.8 1016.5 0.0
28/10:00am 18.8 16.8 10.1 57 4.7 WSW 11 15 6 8 1017.0 1016.7 0.0
28/09:30am 18.1 17.0 10.7 62 4.0 WSW 7 11 4 6 1017.1 1016.8 0.0
28/09:00am 17.2 16.3 10.6 65 3.5 SW 6 9 3 5 1017.1 1016.8 0.0
28/08:30am 15.7 14.8 10.7 72 2.7 SW 6 9 3 5 1017.1 1016.8 0.0
28/08:00am 14.7 13.6 9.9 73 2.5 W 6 7 3 4 1016.8 1016.5 0.0
28/07:30am 14.6 13.4 9.6 72 2.6 SW 6 9 3 5 1017.0 1016.7 0.0
28/07:00am 13.5 10.1 9.0 74 2.3 SW 17 20 9 11 1016.8 1016.5 0.0
28/06:30am 13.5 9.4 8.6 72 2.5 WSW 20 24 11 13 1016.4 1016.1 0.0
28/06:00am 13.6 9.9 9.5 76 2.1 WSW 19 20 10 11 1016.1 1015.8 0.0
28/05:30am 13.5 9.5 9.2 75 2.2 WSW 20 24 11 13 1015.9 1015.6 0.0
28/05:00am 13.6 9.6 8.9 73 2.4 WSW 20 24 11 13 1015.6 1015.3 0.0
28/04:30am 13.9 9.3 9.5 75 2.3 WSW 24 28 13 15 1015.2 1014.9 0.0
28/04:00am 14.0 9.4 9.6 75 2.3 WSW 24 30 13 16 1015.2 1014.9 0.0
28/03:30am 13.9 9.4 9.9 77 2.1 W 24 30 13 16 1015.2 1014.9 0.0
28/03:00am 13.9 9.4 10.1 78 2.0 W 24 28 13 15 1015.4 1015.1 0.0
28/02:30am 14.1 9.6 10.1 77 2.1 WSW 24 28 13 15 1015.3 1015.0 0.0
28/02:00am 14.6 10.7 10.8 78 2.0 WSW 22 26 12 14 1015.4 1015.1 0.0
28/01:30am 15.0 11.7 12.7 86 1.3 WSW 22 26 12 14 1015.6 1015.3 0.0
28/01:00am 14.9 12.0 12.8 87 1.2 WSW 20 24 11 13 1015.8 1015.5 0.0
28/12:30am 15.2 12.4 13.2 88 1.1 WSW 20 24 11 13 1015.8 1015.5 0.0
28/12:00am 15.3 12.7 13.3 88 1.1 WSW 19 24 10 13 1016.0 1015.7 0.0
 
Date/Time
EST
Temp
°C
App
Temp
°C
Dew
Point
°C
Rel
Hum
%
Delta-T
°C
Wind Press
QNH
hPa
Press
MSL
hPa
Rain since
9am
mm
Dir  Spd
km/h
Gust
km/h
Spd
kts
Gust
kts
27/11:30pm 16.1 13.4 13.0 82 1.7 WSW 19 22 10 12 1015.9 1015.6 0.0
27/11:00pm 16.4 13.7 11.8 74 2.5 WSW 17 20 9 11 1016.0 1015.7 0.0
27/10:30pm 16.9 14.9 11.6 71 2.9 SSW 13 15 7 8 1016.1 1015.8 0.0
27/10:00pm 17.5 15.6 11.8 69 3.1 SSE 13 17 7 9 1015.8 1015.5 0.0
27/09:30pm 17.7 15.2 12.2 70 3.1 SE 17 20 9 11 1015.8 1015.5 0.0
27/09:00pm 17.6 15.1 12.3 71 2.9 SSE 17 20 9 11 1015.9 1015.6 0.0
27/08:30pm 17.8 15.4 12.5 71 3.0 SE 17 22 9 12 1015.9 1015.6 0.0
27/08:00pm 17.9 14.9 12.1 69 3.2 SSE 19 24 10 13 1015.9 1015.6 0.0
27/07:30pm 17.9 15.2 12.8 72 2.9 SE 19 24 10 13 1015.7 1015.4 0.0
27/07:00pm 17.8 15.5 11.6 67 3.4 SSE 15 20 8 11 1015.5 1015.2 0.0
27/06:30pm 17.7 15.1 11.9 69 3.2 SE 17 22 9 12 1015.4 1015.1 0.0
27/06:00pm 17.6 15.1 12.3 71 2.9 SE 17 22 9 12 1015.0 1014.7 0.0
27/05:30pm 17.6 15.0 12.1 70 3.0 SSE 17 20 9 11 1014.9 1014.6 0.0
27/05:00pm 17.7 15.2 12.4 71 2.9 SE 17 20 9 11 1014.5 1014.2 0.0
27/04:30pm 18.0 14.6 12.5 70 3.1 SSE 22 28 12 15 1014.2 1013.9 0.0
27/04:00pm 18.4 14.9 12.2 67 3.4 SSE 22 30 12 16 1014.1 1013.8 0.0
27/03:30pm 18.5 13.9 12.3 67 3.5 SSE 28 33 15 18 1013.8 1013.5 0.0
27/03:00pm 19.0 15.8 12.0 64 3.9 S 20 28 11 15 1014.0 1013.7 0.0
27/02:30pm 18.7 15.2 10.8 60 4.3 S 20 35 11 19 1013.9 1013.6 0.0
27/02:00pm 18.8 15.2 10.6 59 4.4 S 20 39 11 21 1014.0 1013.7 0.0
27/01:30pm 19.1 15.5 10.6 58 4.6 S 20 26 11 14 1014.1 1013.8 0.0
27/01:00pm 19.0 15.4 10.6 58 4.6 S 20 28 11 15 1014.2 1013.9 0.0
27/12:30pm 18.8 14.7 10.1 57 4.7 S 22 35 12 19 1014.5 1014.2 0.0
27/12:00pm 18.7 14.1 9.8 56 4.7 S 24 37 13 20 1014.9 1014.6 0.0
27/11:30am 18.9 14.8 10.2 57 4.7 S 22 33 12 18 1015.2 1014.9 0.0
27/11:00am 19.3 16.1 10.0 55 5.0 SSW 17 26 9 14 1015.8 1015.5 0.0
27/10:30am 18.7 14.9 8.9 53 5.1 SW 19 32 10 17 1016.0 1015.7 0.0
27/10:00am 18.1 14.0 8.7 54 4.9 SW 20 32 11 17 1016.2 1015.9 0.0
27/09:30am 17.2 13.0 8.4 56 4.5 SW 20 33 11 18 1016.2 1015.9 0.0
27/09:00am 16.2 11.9 7.9 58 4.2 SW 20 32 11 17 1016.4 1016.1 0.0
27/08:30am 15.9 10.8 7.7 58 4.1 SW 24 33 13 18 1016.2 1015.9 0.0
27/08:00am 14.6 9.8 7.4 62 3.6 WSW 22 33 12 18 1016.0 1015.7 0.0
27/07:30am 14.1 9.7 7.2 63 3.4 WSW 20 26 11 14 1015.7 1015.4 0.0
27/07:00am 13.2 8.3 7.0 66 3.0 WSW 22 30 12 16 1015.1 1014.8 0.0
27/06:30am 12.6 7.4 7.3 70 2.6 WSW 24 32 13 17 1014.8 1014.5 0.0
27/06:00am 12.9 7.7 7.1 68 2.8 WSW 24 30 13 16 1014.6 1014.3 0.0
27/05:30am 13.0 8.2 7.2 68 2.8 WSW 22 28 12 15 1014.3 1014.0 0.0
27/05:00am 12.9 8.0 7.1 68 2.8 WSW 22 30 12 16 1014.1 1013.8 0.0
27/04:30am 13.1 8.3 7.3 68 2.8 WSW 22 28 12 15 1013.9 1013.6 0.0
27/04:00am 13.0 8.5 7.0 67 2.9 WSW 20 26 11 14 1013.7 1013.4 0.0
27/03:30am 13.2 7.7 7.4 68 2.8 WSW 26 37 14 20 1013.4 1013.1 0.0
27/03:00am 13.3 8.0 6.9 65 3.1 WSW 24 35 13 19 1013.5 1013.2 0.0
27/02:30am 13.3 8.7 6.6 64 3.2 WSW 20 30 11 16 1013.4 1013.1 0.0
27/02:00am 13.6 9.0 6.5 62 3.4 WSW 20 32 11 17 1013.4 1013.1 0.0
27/01:30am 14.1 8.3 6.2 59 3.8 WSW 26 39 14 21 1013.6 1013.3 0.0
27/01:00am 14.3 8.5 6.2 58 3.9 WSW 26 39 14 21 1013.9 1013.6 0.0
27/12:30am 14.6 8.7 5.7 55 4.3 WSW 26 46 14 25 1013.9 1013.6 0.0
27/12:26am 14.8 8.5 5.6 54 4.4 WSW 28 46 15 25 1013.8 1013.5 0.0
27/12:00am 15.1 10.4 5.9 54 4.4 WSW 20 39 11 21 1014.1 1013.8 0.0
 
Date/Time
EST
Temp
°C
App
Temp
°C
Dew
Point
°C
Rel
Hum
%
Delta-T
°C
Wind Press
QNH
hPa
Press
MSL
hPa
Rain since
9am
mm
Dir  Spd
km/h
Gust
km/h
Spd
kts
Gust
kts
26/11:49pm 15.1 8.8 5.9 54 4.4 WSW 28 46 15 25 1014.0 1013.7 0.0
26/11:30pm 15.5 8.4 5.7 52 4.7 WSW 32 48 17 26 1013.6 1013.3 0.0
26/11:27pm 15.5 8.8 5.4 51 4.8 WSW 30 48 16 26 1013.6 1013.3 0.0
26/11:00pm 15.6 8.9 5.5 51 4.8 WSW 30 46 16 25 1013.8 1013.5 0.0
26/10:30pm 15.8 8.5 5.4 50 5.0 WSW 33 46 18 25 1013.5 1013.2 0.0
26/10:05pm 16.2 8.8 5.2 48 5.3 WSW 33 52 18 28 1013.8 1013.5 0.0
26/10:00pm 16.0 8.7 5.3 49 5.1 WSW 33 48 18 26 1013.9 1013.6 0.0
26/09:30pm 16.5 8.7 4.9 46 5.5 WSW 35 56 19 30 1014.0 1013.7 0.0
26/09:00pm 16.9 9.5 5.2 46 5.6 WSW 33 52 18 28 1013.9 1013.6 0.0
26/08:35pm 17.6 10.8 5.2 44 6.0 WSW 30 48 16 26 1013.9 1013.6 0.0
26/08:30pm 17.6 11.2 5.2 44 6.0 WSW 28 43 15 23 1013.9 1013.6 0.0
26/08:00pm 18.4 11.3 5.3 42 6.4 WSW 32 54 17 29 1013.4 1013.1 0.0
26/07:41pm 18.7 11.8 4.8 40 6.7 WSW 30 59 16 32 1012.4 1012.2 0.0
26/07:30pm 18.8 11.6 4.9 40 6.7 WSW 32 46 17 25 1012.4 1012.2 0.0
26/07:00pm 20.2 13.8 5.1 37 7.4 WSW 28 37 15 20 1012.1 1011.9 0.0
26/06:41pm 20.8 13.5 4.4 34 8.0 W 32 50 17 27 1012.0 1011.8 0.0
26/06:30pm 21.2 12.8 3.9 32 8.4 W 37 52 20 28 1011.6 1011.3 0.0
26/06:00pm 21.1 13.8 4.6 34 8.1 WSW 32 44 17 24 1011.4 1011.1 0.0
26/05:30pm 21.3 16.5 5.6 36 7.9 WSW 20 30 11 16 1011.2 1010.9 0.0
26/05:00pm 22.1 15.5 5.9 35 8.2 W 30 41 16 22 1010.5 1010.2 0.0
26/04:57pm 22.1 15.5 5.9 35 8.2 W 30 41 16 22 1010.5 1010.2 0.0
26/04:30pm 21.9 19.7 14.3 62 4.5 WNW 19 24 10 13 1010.4 1010.1 0.0
26/04:00pm 22.0 19.4 15.8 68 3.7 NNW 24 33 13 18 1010.1 1009.8 0.0
26/03:30pm 21.6 19.1 16.1 71 3.3 NNW 24 35 13 19 1010.1 1009.8 0.0
26/03:00pm 22.0 19.6 16.3 70 3.5 NNW 24 33 13 18 1010.2 1009.9 0.0
26/02:30pm 22.5 18.8 14.9 62 4.5 NNW 28 39 15 21 1010.2 1009.9 0.0
26/02:00pm 21.4 18.0 14.8 66 3.9 N 26 33 14 18 1010.7 1010.4 0.0
26/01:30pm 22.2 18.9 15.1 64 4.2 N 26 37 14 20 1011.1 1010.8 0.0
26/01:00pm 22.0 19.2 16.3 70 3.5 NNW 26 37 14 20 1011.4 1011.1 0.0

Latest Capital City Observations: Canberra | Sydney | Melbourne | Brisbane | Adelaide | Perth | Hobart | Darwin

Other formats

Comma delimited format used in spreadsheet applications
http://www.bom.gov.au/fwo/IDQ60901/IDQ60901.94594.axf

JavaScript Object Notation format (JSON) in row-major order
http://www.bom.gov.au/fwo/IDQ60901/IDQ60901.94594.json

Data quality

Most of these data are generated automatically and are frequently updated. Quality checks on data are not normally performed. It is possible for incorrect values to appear. Refer to information at About Latest Weather Observations and please check the disclaimer before using these data.